MST,Max TemperatureF,Mean TemperatureF,Min TemperatureF,Max Dew PointF,MeanDew PointF,Min DewpointF,Max Humidity, Mean Humidity, Min Humidity, Max Sea Level PressureIn, Mean Sea Level PressureIn, Min Sea Level PressureIn, Max VisibilityMiles, Mean VisibilityMiles, Min VisibilityMiles, Max Wind SpeedMPH, Mean Wind SpeedMPH, Max Gust SpeedMPH,PrecipitationIn, CloudCover, Events, WindDirDegrees
2012-11-1,67,49,30,27,23,18,69,43,16,30.19,30.05,29.93,10,10,10,18,3,23,0.00,0,,218
2012-11-2,64,48,32,24,20,14,63,40,17,30.13,30.04,29.97,10,10,10,15,3,18,0.00,0,,217
2012-11-3,65,46,26,22,18,16,63,41,18,30.29,30.19,30.10,10,10,10,16,3,18,0.00,0,,253
2012-11-4,64,45,25,23,20,17,68,44,20,30.40,30.32,30.25,10,10,10,10,2,12,0.00,0,,246
2012-11-5,65,47,28,29,26,22,78,52,26,30.45,30.33,30.22,10,10,10,16,3,20,0.00,0,,202
2012-11-6,68,48,28,28,25,21,78,49,19,30.41,30.30,30.18,10,10,10,9,1,10,0.00,0,,165
2012-11-7,67,47,26,23,20,18,69,43,16,30.30,30.13,29.98,10,10,10,29,5,35,0.00,0,,208
2012-11-8,70,49,27,22,18,10,68,39,10,30.01,29.86,29.69,10,10,10,29,4,36,0.00,0,,241
2012-11-9,62,54,45,41,34,25,76,49,22,29.78,29.59,29.43,10,10,10,35,14,44,0.01,5,Rain,178
2012-11-10,52,40,28,37,27,17,96,76,56,29.89,29.66,29.42,10,7,2,29,11,39,0.40,7,Rain-Snow,260
2012-11-11,32,25,18,20,17,13,84,67,49,30.52,30.17,29.90,10,8,1,23,7,28,T,6,Snow,268
2012-11-12,38,26,14,21,14,9,88,62,35,30.71,30.57,30.47,10,10,10,8,1,12,0.00,0,,90
2012-11-13,45,35,24,23,20,12,81,54,27,30.51,30.43,30.34,10,10,10,8,1,8,0.00,3,,230
2012-11-14,48,36,23,27,23,20,88,61,34,30.48,30.36,30.25,10,10,10,6,0,7,0.00,0,,223
2012-11-15,53,39,24,27,24,19,88,58,28,30.42,30.35,30.27,10,10,10,8,1,9,0.00,0,,165
2012-11-16,49,36,23,33,24,20,88,61,34,30.35,30.25,30.17,10,10,5,10,2,14,T,4,Rain,128
2012-11-17,55,44,33,37,34,31,96,71,46,30.22,30.13,30.02,10,10,10,9,2,14,0.01,6,Rain,164
2012-11-18,53,45,37,39,37,32,92,71,50,30.18,30.10,30.03,10,9,4,12,3,15,0.06,6,Rain,227
2012-11-19,55,43,30,36,32,29,100,71,41,30.35,30.28,30.18,10,10,10,10,2,14,0.00,1,,209
2012-11-20,56,42,27,30,27,22,92,59,26,30.44,30.31,30.19,10,10,10,7,1,8,0.00,0,,216
2012-11-21,58,41,24,26,24,21,88,57,25,30.27,30.15,30.03,10,10,10,9,2,10,0.00,0,,148
2012-11-22,57,40,23,26,23,20,88,57,25,30.45,30.28,30.11,10,10,10,10,3,15,0.00,0,,220
2012-11-23,57,40,23,25,22,17,88,55,22,30.58,30.47,30.38,10,10,10,7,1,8,0.00,0,,168
2012-11-24,55,38,21,21,20,18,81,54,26,30.45,30.31,30.15,10,10,10,14,1,18,0.00,0,,221
2012-11-25,55,38,20,21,18,15,84,55,26,30.18,30.07,29.94,10,10,10,17,2,23,0.00,1,,213
2012-11-26,51,36,21,22,19,16,81,55,29,30.37,30.23,30.06,10,10,10,9,1,10,0.00,0,,152
2012-11-27,53,34,15,16,14,11,80,51,21,30.50,30.41,30.30,10,10,10,10,2,13,0.00,0,,115
2012-11-28,49,35,20,17,15,14,77,52,26,30.48,30.34,30.21,10,10,10,7,1,8,0.00,0,,166
2012-11-29,56,41,25,23,21,17,81,54,26,30.28,30.19,30.10,10,10,10,20,4,23,0.00,2,,191
2012-11-30,58,43,27,28,25,21,78,54,30,30.17,30.08,29.96,10,10,10,18,4,22,0.00,2,,177